Time;durP1;ratioP1;P1;durP2;ratioP2;P2;SDS_P1;SDS_P2;PMS_P1;PMS_P2;Temp;Humidity;BMP_temperature;BMP_pressure;BME280_temperature;BME280_humidity;BME280_pressure;Samples;Min_cycle;Max_cycle;Signal;HPM_P1;HPM_P2
2021/05/02 00:02:20;;;;;;;21.23;14.13;;;;;;;;;;5089785;28;40432;-79
2021/05/02 00:04:47;;;;;;;19.27;13.43;;;;;;;;;;5073003;28;37703;-78
2021/05/02 00:07:13;;;;;;;21.77;13.90;;;;;;;;;;5065965;28;40498;-78
2021/05/02 00:09:40;;;;;;;19.37;14.20;;;;;;;;;;5069019;28;38270;-78
2021/05/02 00:12:06;;;;;;;20.93;15.57;;;;;;;;;;5050266;28;37564;-78
2021/05/02 00:14:33;;;;;;;19.40;14.30;;;;;;;;;;5051587;28;37545;-78
2021/05/02 00:16:59;;;;;;;20.33;14.33;;;;;;;;;;5074833;28;39053;-79
2021/05/02 00:19:26;;;;;;;20.47;12.67;;;;;;;;;;5066727;28;39291;-79
2021/05/02 00:21:52;;;;;;;15.27;12.63;;;;;;;;;;5049810;28;38652;-78
2021/05/02 00:24:21;;;;;;;16.10;11.90;;;;;;;;;;5067522;28;36969;-79
2021/05/02 00:26:48;;;;;;;19.80;11.13;;;;;;;;;;5070773;28;39883;-78
2021/05/02 00:29:15;;;;;;;17.60;11.47;;;;;;;;;;5071961;28;38316;-79
2021/05/02 00:31:43;;;;;;;14.37;10.47;;;;;;;;;;5053279;28;38456;-79
2021/05/02 00:34:10;;;;;;;18.90;10.97;;;;;;;;;;5078789;28;37356;-79
2021/05/02 00:36:37;;;;;;;14.73;10.60;;;;;;;;;;5094144;28;38722;-78
2021/05/02 00:39:05;;;;;;;16.47;10.87;;;;;;;;;;5075717;28;37531;-79
2021/05/02 00:41:33;;;;;;;15.53;9.60;;;;;;;;;;5076130;28;38802;-79
2021/05/02 00:44:03;;;;;;;15.70;9.93;;;;;;;;;;5094437;28;38582;-79
2021/05/02 00:46:32;;;;;;;17.17;9.00;;;;;;;;;;5093951;28;48997;-80
2021/05/02 00:49:20;;;;;;;15.20;9.93;;;;;;;;;;5077103;28;37159;-79
2021/05/02 00:51:48;;;;;;;15.47;9.30;;;;;;;;;;5070912;28;47176;-80
2021/05/02 00:54:16;;;;;;;18.87;9.67;;;;;;;;;;5054011;28;35556;-79
2021/05/02 00:57:08;;;;;;;13.50;7.53;;;;;;;;;;5055443;28;37924;-79
2021/05/02 00:59:44;;;;;;;13.23;9.25;;;;;;;;;;5065001;28;47484;-78
2021/05/02 01:02:11;;;;;;;14.30;7.83;;;;;;;;;;5051795;28;39511;-78
2021/05/02 01:04:40;;;;;;;13.63;8.00;;;;;;;;;;5053972;28;35656;-78
2021/05/02 01:07:08;;;;;;;15.73;7.80;;;;;;;;;;5054031;28;39839;-78
2021/05/02 01:09:35;;;;;;;17.47;8.33;;;;;;;;;;5073417;28;39481;-78
2021/05/02 01:12:03;;;;;;;12.80;7.63;;;;;;;;;;5072721;28;36843;-79
2021/05/02 01:14:31;;;;;;;15.70;8.07;;;;;;;;;;5072990;28;48328;-78
2021/05/02 01:16:58;;;;;;;9.87;6.60;;;;;;;;;;5072394;28;39357;-78
2021/05/02 01:19:28;;;;;;;10.97;7.37;;;;;;;;;;5071838;28;39443;-78
2021/05/02 01:21:58;;;;;;;10.47;6.87;;;;;;;;;;5092287;28;38146;-78
2021/05/02 01:24:24;;;;;;;13.37;7.33;;;;;;;;;;5091918;28;38236;-79
2021/05/02 01:26:51;;;;;;;11.17;9.03;;;;;;;;;;5072229;28;40490;-78
2021/05/02 01:29:17;;;;;;;14.50;8.53;;;;;;;;;;5073077;28;37088;-78
2021/05/02 01:31:44;;;;;;;16.53;8.63;;;;;;;;;;5073930;28;39080;-78
2021/05/02 01:34:11;;;;;;;16.33;8.47;;;;;;;;;;5071344;28;35669;-78
2021/05/02 01:36:37;;;;;;;12.27;7.73;;;;;;;;;;5073248;28;38841;-78
2021/05/02 01:39:06;;;;;;;15.60;8.37;;;;;;;;;;5072687;28;38093;-78
2021/05/02 01:41:32;;;;;;;11.13;7.37;;;;;;;;;;5090872;28;38241;-78
2021/05/02 01:43:58;;;;;;;18.70;8.10;;;;;;;;;;5092288;28;37469;-78
2021/05/02 01:46:36;;;;;;;12.73;8.33;;;;;;;;;;5073069;28;39828;-78
2021/05/02 01:49:03;;;;;;;11.27;7.57;;;;;;;;;;5090662;28;39376;-78
2021/05/02 01:51:32;;;;;;;13.27;8.03;;;;;;;;;;5091051;28;38633;-78
2021/05/02 01:54:00;;;;;;;12.10;8.00;;;;;;;;;;5072600;28;37442;-78
2021/05/02 01:56:28;;;;;;;12.67;6.43;;;;;;;;;;5071325;28;39819;-79
2021/05/02 01:58:55;;;;;;;10.73;7.00;;;;;;;;;;5072999;28;36971;-78
2021/05/02 02:01:23;;;;;;;12.60;8.57;;;;;;;;;;5071021;28;39774;-78
2021/05/02 02:03:50;;;;;;;15.20;8.30;;;;;;;;;;5073508;28;36618;-78
2021/05/02 02:06:16;;;;;;;17.97;9.60;;;;;;;;;;5072132;28;40393;-78
2021/05/02 02:08:43;;;;;;;12.53;8.20;;;;;;;;;;5073117;28;39649;-78
2021/05/02 02:11:10;;;;;;;12.03;8.97;;;;;;;;;;5070015;28;38147;-78
2021/05/02 02:13:37;;;;;;;14.13;9.60;;;;;;;;;;5070340;28;36963;-78
2021/05/02 02:16:04;;;;;;;12.93;8.03;;;;;;;;;;5056530;28;39401;-78
2021/05/02 02:18:31;;;;;;;14.87;8.03;;;;;;;;;;5054441;28;37030;-78
2021/05/02 02:20:57;;;;;;;12.03;7.47;;;;;;;;;;5070481;28;38555;-78
2021/05/02 02:23:34;;;;;;;15.43;9.20;;;;;;;;;;5050627;28;38097;-78
2021/05/02 02:26:23;;;;;;;17.53;9.57;;;;;;;;;;5052295;28;37866;-78
2021/05/02 02:28:51;;;;;;;11.80;8.50;;;;;;;;;;5044688;28;47558;-78
2021/05/02 02:31:18;;;;;;;10.57;7.73;;;;;;;;;;5070495;28;39860;-78
2021/05/02 02:33:45;;;;;;;13.43;7.43;;;;;;;;;;5068142;28;37298;-78
2021/05/02 02:36:12;;;;;;;15.57;8.43;;;;;;;;;;5050248;28;37769;-78
2021/05/02 02:38:39;;;;;;;11.87;8.67;;;;;;;;;;5067920;28;38363;-78
2021/05/02 02:41:06;;;;;;;13.93;7.60;;;;;;;;;;5050184;28;38044;-78
2021/05/02 02:43:34;;;;;;;12.30;7.00;;;;;;;;;;5050502;28;35947;-78
2021/05/02 02:46:03;;;;;;;11.03;7.03;;;;;;;;;;5051952;28;39700;-78
2021/05/02 02:48:30;;;;;;;15.63;7.17;;;;;;;;;;5073347;28;48893;-78
2021/05/02 02:50:58;;;;;;;11.40;7.17;;;;;;;;;;5066900;28;38014;-78
2021/05/02 02:53:27;;;;;;;11.10;6.00;;;;;;;;;;5092720;28;37199;-79
2021/05/02 02:55:58;;;;;;;11.87;6.00;;;;;;;;;;5076111;28;39577;-78
2021/05/02 02:58:26;;;;;;;8.37;4.37;;;;;;;;;;5092716;28;38464;-78
2021/05/02 03:00:53;;;;;;;9.97;5.13;;;;;;;;;;5075274;28;38425;-78
2021/05/02 03:03:21;;;;;;;9.87;4.17;;;;;;;;;;5073789;28;37570;-78
2021/05/02 03:05:49;;;;;;;8.13;4.70;;;;;;;;;;5073730;28;39227;-78
2021/05/02 03:08:17;;;;;;;7.53;4.50;;;;;;;;;;5061024;28;39492;-78
2021/05/02 03:10:46;;;;;;;11.77;4.47;;;;;;;;;;5053193;28;36901;-79
2021/05/02 03:13:12;;;;;;;9.40;3.77;;;;;;;;;;5049962;28;36012;-78
2021/05/02 03:15:39;;;;;;;8.90;4.30;;;;;;;;;;5071702;28;40019;-78
2021/05/02 03:18:18;;;;;;;13.73;4.50;;;;;;;;;;5089685;28;38152;-78
2021/05/02 03:20:46;;;;;;;9.87;3.63;;;;;;;;;;5057037;28;39137;-77
2021/05/02 03:23:13;;;;;;;13.70;4.13;;;;;;;;;;5070694;28;36744;-79
2021/05/02 03:25:44;;;;;;;8.50;3.97;;;;;;;;;;5071786;28;38416;-78
2021/05/02 03:28:15;;;;;;;9.43;2.87;;;;;;;;;;5071477;28;38475;-79
2021/05/02 03:30:43;;;;;;;9.80;3.00;;;;;;;;;;5089646;28;39017;-78
2021/05/02 03:33:10;;;;;;;11.93;3.70;;;;;;;;;;5088626;28;36580;-78
2021/05/02 03:35:39;;;;;;;9.23;3.00;;;;;;;;;;5072150;28;39544;-79
2021/05/02 03:38:22;;;;;;;14.23;3.00;;;;;;;;;;5071171;28;38978;-78
2021/05/02 03:40:49;;;;;;;7.70;3.07;;;;;;;;;;5071118;28;38739;-78
2021/05/02 03:43:16;;;;;;;13.10;3.13;;;;;;;;;;5071426;28;37380;-78
2021/05/02 03:45:42;;;;;;;7.43;2.50;;;;;;;;;;5072441;28;39385;-78
2021/05/02 03:48:09;;;;;;;9.57;3.00;;;;;;;;;;5070038;28;38933;-78
2021/05/02 03:50:36;;;;;;;9.10;2.60;;;;;;;;;;5072050;28;39952;-78
2021/05/02 03:53:03;;;;;;;6.67;2.73;;;;;;;;;;5069780;28;36054;-78
2021/05/02 03:55:30;;;;;;;6.00;2.53;;;;;;;;;;5072033;28;39461;-78
2021/05/02 03:57:56;;;;;;;12.63;2.70;;;;;;;;;;5090951;28;38278;-78
2021/05/02 04:00:22;;;;;;;5.93;2.73;;;;;;;;;;5093091;28;37655;-78
2021/05/02 04:02:49;;;;;;;11.17;2.63;;;;;;;;;;5096188;28;37429;-78
2021/05/02 04:05:15;;;;;;;9.87;2.70;;;;;;;;;;5096055;28;38917;-78
2021/05/02 04:07:41;;;;;;;9.00;2.40;;;;;;;;;;5065483;28;39022;-78
2021/05/02 04:10:08;;;;;;;9.07;2.70;;;;;;;;;;5085453;28;39268;-78
2021/05/02 04:12:34;;;;;;;13.40;3.47;;;;;;;;;;5073133;28;37215;-78
2021/05/02 04:15:01;;;;;;;8.43;2.47;;;;;;;;;;5067866;28;38523;-78
2021/05/02 04:17:27;;;;;;;8.23;2.63;;;;;;;;;;5084925;28;47187;-78
2021/05/02 04:19:53;;;;;;;10.43;2.87;;;;;;;;;;5073587;28;38693;-78
2021/05/02 04:22:21;;;;;;;4.83;2.23;;;;;;;;;;5071259;28;36481;-78
2021/05/02 04:24:48;;;;;;;6.37;2.27;;;;;;;;;;5073519;28;37325;-78
2021/05/02 04:27:15;;;;;;;9.43;2.77;;;;;;;;;;5071689;28;38862;-79
2021/05/02 04:29:41;;;;;;;11.40;2.73;;;;;;;;;;5073031;28;39085;-79
2021/05/02 04:32:08;;;;;;;8.23;2.50;;;;;;;;;;5071022;28;35642;-78
2021/05/02 04:34:34;;;;;;;10.87;2.67;;;;;;;;;;5091043;28;39088;-78
2021/05/02 04:37:01;;;;;;;6.83;2.30;;;;;;;;;;5071367;28;40095;-78
2021/05/02 04:39:28;;;;;;;9.90;2.60;;;;;;;;;;5071853;28;46961;-78
2021/05/02 04:41:55;;;;;;;10.60;2.67;;;;;;;;;;5090157;28;37205;-78
2021/05/02 04:44:22;;;;;;;10.80;2.77;;;;;;;;;;5089565;28;39202;-78
2021/05/02 04:46:48;;;;;;;10.77;2.83;;;;;;;;;;5072738;28;38482;-78
2021/05/02 04:49:15;;;;;;;6.00;2.43;;;;;;;;;;5070966;28;38384;-78
2021/05/02 04:51:42;;;;;;;6.80;2.60;;;;;;;;;;5090092;28;38150;-78
2021/05/02 04:54:09;;;;;;;5.20;2.30;;;;;;;;;;5072422;28;40239;-78
2021/05/02 04:56:39;;;;;;;5.47;1.90;;;;;;;;;;5072017;28;40296;-78
2021/05/02 04:59:09;;;;;;;4.13;2.03;;;;;;;;;;5071434;28;38710;-78
2021/05/02 05:01:40;;;;;;;6.47;2.30;;;;;;;;;;5071402;28;37263;-78
2021/05/02 05:04:07;;;;;;;4.67;2.30;;;;;;;;;;5071229;28;42936;-78
2021/05/02 05:06:33;;;;;;;8.63;2.10;;;;;;;;;;5089403;28;39762;-78
2021/05/02 05:09:00;;;;;;;4.63;2.10;;;;;;;;;;5091254;28;38123;-78
2021/05/02 05:11:26;;;;;;;6.33;2.00;;;;;;;;;;5070746;28;38215;-78
2021/05/02 05:13:52;;;;;;;6.30;2.33;;;;;;;;;;5073198;28;39415;-78
2021/05/02 05:16:19;;;;;;;7.90;2.30;;;;;;;;;;5090372;28;39609;-78
2021/05/02 05:18:45;;;;;;;8.93;1.80;;;;;;;;;;5072807;28;37246;-78
2021/05/02 05:21:13;;;;;;;8.17;2.37;;;;;;;;;;5071795;28;35845;-78
2021/05/02 05:23:39;;;;;;;10.03;2.23;;;;;;;;;;5061858;28;40401;-78
2021/05/02 05:26:06;;;;;;;6.77;2.30;;;;;;;;;;5050363;28;40133;-78
2021/05/02 05:28:32;;;;;;;9.27;1.93;;;;;;;;;;5051689;28;38589;-78
2021/05/02 05:30:58;;;;;;;5.83;2.10;;;;;;;;;;5052211;28;37746;-78
2021/05/02 05:33:28;;;;;;;5.17;1.80;;;;;;;;;;5068752;28;39171;-78
2021/05/02 05:35:55;;;;;;;4.17;1.70;;;;;;;;;;5051611;28;38902;-78
2021/05/02 05:38:22;;;;;;;7.07;2.10;;;;;;;;;;5067638;28;38068;-78
2021/05/02 05:40:48;;;;;;;5.07;1.53;;;;;;;;;;5081340;28;37213;-78
2021/05/02 05:43:14;;;;;;;8.27;2.40;;;;;;;;;;5071106;28;39846;-78
2021/05/02 05:45:41;;;;;;;3.93;2.03;;;;;;;;;;5089673;28;39465;-78
2021/05/02 05:48:07;;;;;;;10.87;1.97;;;;;;;;;;5088952;28;38472;-78
2021/05/02 05:50:34;;;;;;;7.83;1.80;;;;;;;;;;5090565;28;36963;-78
2021/05/02 05:53:00;;;;;;;4.57;1.67;;;;;;;;;;5071243;28;40363;-78
2021/05/02 05:55:27;;;;;;;4.23;1.70;;;;;;;;;;5069734;28;39280;-78
2021/05/02 05:57:53;;;;;;;7.17;1.70;;;;;;;;;;5060005;28;39680;-78
2021/05/02 06:00:21;;;;;;;9.47;2.27;;;;;;;;;;5050121;28;38856;-78
2021/05/02 06:02:47;;;;;;;5.37;1.60;;;;;;;;;;5050832;28;39409;-78
2021/05/02 06:05:15;;;;;;;3.17;1.10;;;;;;;;;;5069293;28;39490;-78
2021/05/02 06:07:41;;;;;;;14.97;2.27;;;;;;;;;;5057739;28;38629;-78
2021/05/02 06:10:08;;;;;;;4.53;1.67;;;;;;;;;;5069706;28;37392;-78
2021/05/02 06:12:35;;;;;;;4.63;1.47;;;;;;;;;;5069937;28;39665;-78
2021/05/02 06:15:01;;;;;;;4.93;1.60;;;;;;;;;;5088241;28;38939;-78
2021/05/02 06:17:28;;;;;;;8.37;1.90;;;;;;;;;;5069149;28;48351;-78
2021/05/02 06:19:54;;;;;;;6.27;1.60;;;;;;;;;;5088847;28;37295;-78
2021/05/02 06:22:21;;;;;;;7.33;1.90;;;;;;;;;;5061378;28;39145;-78
2021/05/02 06:24:47;;;;;;;5.57;1.47;;;;;;;;;;5069775;28;38773;-79
2021/05/02 06:27:14;;;;;;;6.73;1.60;;;;;;;;;;5070646;28;38390;-79
2021/05/02 06:29:40;;;;;;;3.53;1.27;;;;;;;;;;5053375;28;37769;-79
2021/05/02 06:32:06;;;;;;;3.90;1.20;;;;;;;;;;5052597;28;40008;-79
2021/05/02 06:34:33;;;;;;;1.80;1.17;;;;;;;;;;5071696;28;39365;-79
2021/05/02 06:36:59;;;;;;;8.70;1.43;;;;;;;;;;5052537;28;38597;-79
2021/05/02 06:39:26;;;;;;;2.43;1.30;;;;;;;;;;5071381;28;36772;-78
2021/05/02 06:41:52;;;;;;;3.63;1.60;;;;;;;;;;5052830;28;39064;-79
2021/05/02 06:44:19;;;;;;;3.30;1.20;;;;;;;;;;5051034;28;39207;-79
2021/05/02 06:46:45;;;;;;;4.10;1.53;;;;;;;;;;5051625;28;40192;-78
2021/05/02 06:49:12;;;;;;;1.90;1.10;;;;;;;;;;5063733;28;37659;-78
2021/05/02 06:51:39;;;;;;;4.50;1.40;;;;;;;;;;5051255;28;39173;-78
2021/05/02 06:54:06;;;;;;;2.70;1.30;;;;;;;;;;5069292;28;38269;-77
2021/05/02 06:56:32;;;;;;;2.13;1.10;;;;;;;;;;5051442;28;38890;-77
2021/05/02 06:58:59;;;;;;;2.47;1.23;;;;;;;;;;5052118;28;36799;-77
2021/05/02 07:01:26;;;;;;;3.23;1.20;;;;;;;;;;5069190;28;38748;-77
2021/05/02 07:03:53;;;;;;;3.75;0.95;;;;;;;;;;5069047;28;38674;-78
2021/05/02 07:06:19;;;;;;;3.17;1.15;;;;;;;;;;5084540;28;39269;-77
2021/05/02 07:08:46;;;;;;;2.28;1.10;;;;;;;;;;5070247;28;37497;-78
2021/05/02 07:11:12;;;;;;;1.42;1.05;;;;;;;;;;5070018;28;40234;-79
2021/05/02 07:13:38;;;;;;;2.13;0.80;;;;;;;;;;5088395;28;39777;-78
2021/05/02 07:16:05;;;;;;;8.00;1.30;;;;;;;;;;5069934;28;39470;-78
2021/05/02 07:18:34;;;;;;;6.00;1.58;;;;;;;;;;5070801;28;39003;-78
2021/05/02 07:21:01;;;;;;;2.80;1.40;;;;;;;;;;5072100;28;39437;-78
2021/05/02 07:23:28;;;;;;;2.72;0.98;;;;;;;;;;5069710;28;39034;-78
2021/05/02 07:25:54;;;;;;;4.03;0.90;;;;;;;;;;5090603;28;37879;-78
2021/05/02 07:28:21;;;;;;;1.52;0.95;;;;;;;;;;5070121;28;37418;-78
2021/05/02 07:30:48;;;;;;;3.97;1.30;;;;;;;;;;5072078;28;39198;-78
2021/05/02 07:33:14;;;;;;;3.00;1.08;;;;;;;;;;5088289;28;39506;-77
2021/05/02 07:35:40;;;;;;;3.90;1.00;;;;;;;;;;5089999;28;39483;-78
2021/05/02 07:38:07;;;;;;;3.17;1.10;;;;;;;;;;5090341;28;36891;-77
2021/05/02 07:40:34;;;;;;;2.75;1.05;;;;;;;;;;5067709;28;40453;-77
2021/05/02 07:43:00;;;;;;;3.08;1.00;;;;;;;;;;5069879;28;39439;-78
2021/05/02 07:45:27;;;;;;;1.98;0.90;;;;;;;;;;5051500;28;39618;-78
2021/05/02 07:47:53;;;;;;;2.67;0.90;;;;;;;;;;5051573;28;38295;-78
2021/05/02 07:50:19;;;;;;;3.50;1.00;;;;;;;;;;5069886;28;40060;-78
2021/05/02 07:52:46;;;;;;;3.00;1.30;;;;;;;;;;5049675;28;38285;-78
2021/05/02 07:55:12;;;;;;;3.55;1.23;;;;;;;;;;5051088;28;36849;-77
2021/05/02 07:57:39;;;;;;;4.60;1.27;;;;;;;;;;5089001;28;37087;-78
2021/05/02 08:00:06;;;;;;;4.03;1.10;;;;;;;;;;5088509;28;38726;-78
2021/05/02 08:02:32;;;;;;;2.20;1.05;;;;;;;;;;5089305;28;38634;-77
2021/05/02 08:04:58;;;;;;;5.53;1.38;;;;;;;;;;5089278;28;38095;-78
2021/05/02 08:07:25;;;;;;;2.42;1.55;;;;;;;;;;5063348;28;38936;-78
2021/05/02 08:09:52;;;;;;;2.22;0.80;;;;;;;;;;5050677;28;39332;-78
2021/05/02 08:12:18;;;;;;;3.70;1.00;;;;;;;;;;5068952;28;39402;-78
2021/05/02 08:14:45;;;;;;;3.75;1.05;;;;;;;;;;5069648;28;38293;-78
2021/05/02 08:17:11;;;;;;;2.22;1.15;;;;;;;;;;5066606;28;38553;-78
2021/05/02 08:19:37;;;;;;;1.70;0.88;;;;;;;;;;5067576;28;37895;-79
2021/05/02 08:22:04;;;;;;;3.75;1.38;;;;;;;;;;5072440;28;39860;-77
2021/05/02 08:24:31;;;;;;;3.85;0.90;;;;;;;;;;5070940;28;39204;-77
2021/05/02 08:26:58;;;;;;;2.55;0.93;;;;;;;;;;5069775;28;36939;-77
2021/05/02 08:29:25;;;;;;;1.58;0.98;;;;;;;;;;5068757;28;39421;-77
2021/05/02 08:31:51;;;;;;;1.77;0.98;;;;;;;;;;5070149;28;37387;-79
2021/05/02 08:34:18;;;;;;;5.25;1.40;;;;;;;;;;5087735;28;38240;-78
2021/05/02 08:36:44;;;;;;;2.67;0.90;;;;;;;;;;5070085;28;38451;-78
2021/05/02 08:39:11;;;;;;;4.38;1.17;;;;;;;;;;5070326;28;38846;-78
2021/05/02 08:41:37;;;;;;;4.82;1.00;;;;;;;;;;5070608;28;38588;-78
2021/05/02 08:44:04;;;;;;;3.53;1.08;;;;;;;;;;5086996;28;38615;-78
2021/05/02 08:46:30;;;;;;;4.65;1.20;;;;;;;;;;5089484;28;37108;-79
2021/05/02 08:48:57;;;;;;;4.38;1.23;;;;;;;;;;5068941;28;39577;-78
2021/05/02 08:51:24;;;;;;;2.35;1.05;;;;;;;;;;5070914;28;38754;-78
2021/05/02 08:53:50;;;;;;;2.72;1.10;;;;;;;;;;5088815;28;38193;-78
2021/05/02 08:56:17;;;;;;;4.03;0.90;;;;;;;;;;5089094;28;38564;-78
2021/05/02 08:58:45;;;;;;;1.92;0.80;;;;;;;;;;5072018;28;38225;-78
2021/05/02 09:01:11;;;;;;;4.22;1.02;;;;;;;;;;5089308;28;38489;-78
2021/05/02 09:03:38;;;;;;;3.15;1.20;;;;;;;;;;5086721;28;38310;-78
2021/05/02 09:06:14;;;;;;;2.92;1.40;;;;;;;;;;5070369;28;35831;-78
2021/05/02 09:08:40;;;;;;;4.90;1.17;;;;;;;;;;5069734;28;39348;-78
2021/05/02 09:11:07;;;;;;;4.10;1.20;;;;;;;;;;5068016;28;37374;-78
2021/05/02 09:13:33;;;;;;;4.93;1.15;;;;;;;;;;5088076;28;38501;-78
2021/05/02 09:16:01;;;;;;;4.90;1.48;;;;;;;;;;5069679;28;36628;-78
2021/05/02 09:18:40;;;;;;;4.95;1.75;;;;;;;;;;5068591;28;41508;-78
2021/05/02 09:21:15;;;;;;;2.83;1.50;;;;;;;;;;5087820;28;38186;-77
2021/05/02 09:23:42;;;;;;;2.78;0.98;;;;;;;;;;5065921;28;38191;-79
2021/05/02 09:26:17;;;;;;;3.53;0.93;;;;;;;;;;5048638;28;38152;-78
2021/05/02 09:28:44;;;;;;;4.60;1.00;;;;;;;;;;5067670;28;39141;-79
2021/05/02 09:31:11;;;;;;;3.75;1.50;;;;;;;;;;5048479;28;38548;-78
2021/05/02 09:33:37;;;;;;;2.55;1.10;;;;;;;;;;5068593;28;38191;-78
2021/05/02 09:36:07;;;;;;;3.83;1.55;;;;;;;;;;5048936;28;37795;-78
2021/05/02 09:38:33;;;;;;;3.50;1.13;;;;;;;;;;5076199;28;40051;-78
2021/05/02 09:41:01;;;;;;;3.75;1.23;;;;;;;;;;5087472;28;38570;-78
2021/05/02 09:43:30;;;;;;;1.52;1.10;;;;;;;;;;5087202;28;47774;-78
2021/05/02 09:46:28;;;;;;;3.70;1.02;;;;;;;;;;5069865;28;38575;-78
2021/05/02 09:48:56;;;;;;;4.25;1.10;;;;;;;;;;5071775;28;47836;-78
2021/05/02 09:51:24;;;;;;;3.35;1.23;;;;;;;;;;5072420;28;37575;-78
2021/05/02 09:54:11;;;;;;;3.72;1.00;;;;;;;;;;5087713;28;37916;-78
2021/05/02 09:56:38;;;;;;;2.97;1.00;;;;;;;;;;5088924;28;49879;-78
2021/05/02 09:59:06;;;;;;;5.57;1.53;;;;;;;;;;5072996;28;39379;-78
2021/05/02 10:01:32;;;;;;;6.70;1.47;;;;;;;;;;5091661;28;38340;-78
2021/05/02 10:04:00;;;;;;;2.30;1.40;;;;;;;;;;5092576;28;39283;-78
2021/05/02 10:06:31;;;;;;;10.43;1.57;;;;;;;;;;5091453;28;37802;-78
2021/05/02 10:08:59;;;;;;;5.57;1.47;;;;;;;;;;5074956;28;37960;-78
2021/05/02 10:11:25;;;;;;;5.70;1.70;;;;;;;;;;5072934;28;38252;-78
2021/05/02 10:13:53;;;;;;;4.20;1.53;;;;;;;;;;5067207;28;37055;-78
2021/05/02 10:16:19;;;;;;;5.77;1.63;;;;;;;;;;5073222;28;36588;-79
2021/05/02 10:18:46;;;;;;;4.97;1.60;;;;;;;;;;5090646;28;41297;-77
2021/05/02 10:21:13;;;;;;;2.60;1.20;;;;;;;;;;5091008;28;38749;-78
2021/05/02 10:23:39;;;;;;;2.55;1.30;;;;;;;;;;5051743;28;38375;-78
2021/05/02 10:26:06;;;;;;;3.17;1.52;;;;;;;;;;5052438;28;35524;-78
2021/05/02 10:28:33;;;;;;;2.65;1.65;;;;;;;;;;5054015;28;39388;-78
2021/05/02 10:31:01;;;;;;;3.78;1.75;;;;;;;;;;5073235;28;37351;-78
2021/05/02 10:33:36;;;;;;;1.90;1.33;;;;;;;;;;5092004;28;38003;-79
2021/05/02 10:36:06;;;;;;;4.72;1.40;;;;;;;;;;5091683;28;37287;-79
2021/05/02 10:38:45;;;;;;;4.40;1.02;;;;;;;;;;5071874;28;47161;-78
2021/05/02 10:41:26;;;;;;;5.45;1.30;;;;;;;;;;5090881;28;39598;-79
2021/05/02 10:43:54;;;;;;;2.90;1.15;;;;;;;;;;5073002;28;38346;-78
2021/05/02 10:46:58;;;;;;;3.05;0.80;;;;;;;;;;5091137;28;37770;-79
2021/05/02 10:49:24;;;;;;;5.72;1.23;;;;;;;;;;4990752;28;39230;-78
2021/05/02 10:51:55;;;;;;;4.22;1.17;;;;;;;;;;5073661;28;38894;-78
2021/05/02 10:54:23;;;;;;;3.85;1.33;;;;;;;;;;5073020;28;39991;-78
2021/05/02 10:56:51;;;;;;;1.75;0.63;;;;;;;;;;5072871;28;38868;-78
2021/05/02 10:59:18;;;;;;;7.75;1.20;;;;;;;;;;5073170;28;39767;-79
2021/05/02 11:01:44;;;;;;;7.45;1.20;;;;;;;;;;5072331;28;39086;-78
2021/05/02 11:04:11;;;;;;;3.13;1.20;;;;;;;;;;5067663;28;39922;-78
2021/05/02 11:06:38;;;;;;;1.33;0.85;;;;;;;;;;5052023;28;35767;-78
2021/05/02 11:09:08;;;;;;;4.32;1.10;;;;;;;;;;5071484;28;40300;-78
2021/05/02 11:11:46;;;;;;;2.97;0.85;;;;;;;;;;5071786;28;39176;-78
2021/05/02 11:14:21;;;;;;;1.38;0.93;;;;;;;;;;5072443;28;39118;-78
2021/05/02 11:17:10;;;;;;;3.78;1.25;;;;;;;;;;5091272;28;37095;-78
2021/05/02 11:19:40;;;;;;;3.15;1.15;;;;;;;;;;5091124;28;48838;-79
2021/05/02 11:22:07;;;;;;;1.45;0.70;;;;;;;;;;5072314;28;38838;-78
2021/05/02 11:24:43;;;;;;;4.32;0.68;;;;;;;;;;5071175;28;37051;-78
2021/05/02 11:27:24;;;;;;;1.63;0.65;;;;;;;;;;5070963;28;35844;-78
2021/05/02 11:30:06;;;;;;;1.77;1.02;;;;;;;;;;5072693;28;38209;-78
2021/05/02 11:32:37;;;;;;;2.40;1.05;;;;;;;;;;5072428;28;47536;-78
2021/05/02 11:35:04;;;;;;;1.92;0.82;;;;;;;;;;5074007;28;37117;-78
2021/05/02 11:37:36;;;;;;;0.80;0.50;;;;;;;;;;5093873;28;37478;-78
2021/05/02 11:40:22;;;;;;;4.72;1.02;;;;;;;;;;5094175;28;38552;-78
2021/05/02 11:42:53;;;;;;;1.70;0.68;;;;;;;;;;5076995;28;37796;-79
2021/05/02 11:45:20;;;;;;;4.72;1.27;;;;;;;;;;5093767;28;39290;-78
2021/05/02 11:47:47;;;;;;;1.58;0.77;;;;;;;;;;5094590;28;36834;-78
2021/05/02 11:50:14;;;;;;;1.73;0.80;;;;;;;;;;5094799;28;38975;-79
2021/05/02 11:52:46;;;;;;;2.47;0.88;;;;;;;;;;5075294;28;37626;-78
2021/05/02 11:55:29;;;;;;;1.40;0.80;;;;;;;;;;5095379;28;39085;-79
2021/05/02 11:57:56;;;;;;;1.75;0.68;;;;;;;;;;5093747;28;38206;-78
2021/05/02 12:00:36;;;;;;;2.88;0.80;;;;;;;;;;5073768;28;37635;-79
2021/05/02 12:03:02;;;;;;;3.67;0.70;;;;;;;;;;5075843;28;37942;-78
2021/05/02 12:05:28;;;;;;;2.97;0.95;;;;;;;;;;5075169;28;38372;-78
2021/05/02 12:08:08;;;;;;;2.20;0.80;;;;;;;;;;5073914;28;36488;-77
2021/05/02 12:10:35;;;;;;;2.70;1.05;;;;;;;;;;5072912;28;47382;-78
2021/05/02 12:13:01;;;;;;;4.57;0.82;;;;;;;;;;5072695;28;39091;-78
2021/05/02 12:15:27;;;;;;;2.90;0.60;;;;;;;;;;5071840;28;48245;-78
2021/05/02 12:17:54;;;;;;;1.77;0.82;;;;;;;;;;5091270;28;37067;-79
2021/05/02 12:20:24;;;;;;;4.13;0.85;;;;;;;;;;5090679;28;39126;-78
2021/05/02 12:22:51;;;;;;;5.18;0.90;;;;;;;;;;5073878;28;37744;-78
2021/05/02 12:25:17;;;;;;;3.35;0.65;;;;;;;;;;5074326;28;36950;-78
2021/05/02 12:27:56;;;;;;;2.88;0.70;;;;;;;;;;5058027;28;35593;-78
2021/05/02 12:30:22;;;;;;;2.08;0.80;;;;;;;;;;5074977;28;37884;-78
2021/05/02 12:32:49;;;;;;;1.95;0.93;;;;;;;;;;5075761;28;37678;-78
2021/05/02 12:35:15;;;;;;;2.35;0.70;;;;;;;;;;5091761;28;39386;-78
2021/05/02 12:37:42;;;;;;;2.45;0.70;;;;;;;;;;5072789;28;35815;-78
2021/05/02 12:40:09;;;;;;;3.15;0.88;;;;;;;;;;5092101;28;39792;-78
2021/05/02 12:42:37;;;;;;;2.08;0.70;;;;;;;;;;5072487;28;37146;-79
2021/05/02 12:45:07;;;;;;;1.52;0.57;;;;;;;;;;5072101;28;38637;-78
2021/05/02 12:47:39;;;;;;;4.82;0.55;;;;;;;;;;5071836;28;35786;-78
2021/05/02 12:50:07;;;;;;;0.55;0.30;;;;;;;;;;5089583;28;38600;-78
2021/05/02 12:52:35;;;;;;;3.10;0.60;;;;;;;;;;5070640;28;37593;-78
2021/05/02 12:55:21;;;;;;;3.20;0.50;;;;;;;;;;5070866;28;36979;-78
2021/05/02 12:57:50;;;;;;;2.05;0.63;;;;;;;;;;5071359;28;48467;-78
2021/05/02 13:00:18;;;;;;;2.00;0.52;;;;;;;;;;5070813;28;39040;-78
2021/05/02 13:02:45;;;;;;;1.30;0.35;;;;;;;;;;5069943;28;37243;-78
2021/05/02 13:05:13;;;;;;;2.40;0.50;;;;;;;;;;5088775;28;39445;-78
2021/05/02 13:07:46;;;;;;;2.72;0.70;;;;;;;;;;5071302;28;37699;-78
2021/05/02 13:10:19;;;;;;;1.52;0.40;;;;;;;;;;5073201;28;39125;-78
2021/05/02 13:12:45;;;;;;;;;;;;;;;;;;5074878;28;38960;-78
2021/05/02 13:15:11;;;;;;;1.60;0.57;;;;;;;;;;5072137;28;38478;-78
2021/05/02 13:17:38;;;;;;;1.30;0.40;;;;;;;;;;5072341;28;36852;-79
2021/05/02 13:20:05;;;;;;;5.78;1.10;;;;;;;;;;5090663;28;38624;-79
2021/05/02 13:22:31;;;;;;;1.45;0.57;;;;;;;;;;5073905;28;38852;-79
2021/05/02 13:24:59;;;;;;;1.02;0.60;;;;;;;;;;5092043;28;38282;-78
2021/05/02 13:27:35;;;;;;;1.65;0.65;;;;;;;;;;5073571;28;37450;-79
2021/05/02 13:30:03;;;;;;;1.95;0.57;;;;;;;;;;5091874;28;39053;-79
2021/05/02 13:32:29;;;;;;;2.55;1.20;;;;;;;;;;5071682;28;47066;-78
2021/05/02 13:34:56;;;;;;;0.73;0.40;;;;;;;;;;5074088;28;38680;-78
2021/05/02 13:37:22;;;;;;;3.47;0.73;;;;;;;;;;5055948;28;35328;-80
2021/05/02 13:39:48;;;;;;;5.53;0.57;;;;;;;;;;5072497;28;38863;-79
2021/05/02 13:42:15;;;;;;;1.17;0.40;;;;;;;;;;5073638;28;38434;-79
2021/05/02 13:44:41;;;;;;;1.88;0.30;;;;;;;;;;5054636;28;39384;-81
2021/05/02 13:47:09;;;;;;;1.20;0.60;;;;;;;;;;5054096;28;37729;-78
2021/05/02 13:49:35;;;;;;;2.15;0.55;;;;;;;;;;5055268;28;40742;-78
2021/05/02 13:52:02;;;;;;;1.10;0.47;;;;;;;;;;5072900;28;39036;-80
2021/05/02 13:54:28;;;;;;;2.55;0.90;;;;;;;;;;5068613;28;46779;-78
2021/05/02 13:56:55;;;;;;;1.98;0.47;;;;;;;;;;5073789;28;37506;-78
2021/05/02 13:59:25;;;;;;;1.77;0.50;;;;;;;;;;5064750;28;37599;-79
2021/05/02 14:01:52;;;;;;;2.35;0.40;;;;;;;;;;5055111;28;39603;-78
2021/05/02 14:04:18;;;;;;;2.95;0.38;;;;;;;;;;5054886;28;38067;-78
2021/05/02 14:06:44;;;;;;;2.90;0.82;;;;;;;;;;5064627;28;37579;-78
2021/05/02 14:09:11;;;;;;;2.70;0.60;;;;;;;;;;5091319;28;38688;-78
2021/05/02 14:11:37;;;;;;;1.33;0.40;;;;;;;;;;5091329;28;39723;-78
2021/05/02 14:14:04;;;;;;;1.83;0.50;;;;;;;;;;5058622;28;38962;-78
2021/05/02 14:16:30;;;;;;;4.00;0.93;;;;;;;;;;5053531;28;38677;-78
2021/05/02 14:18:57;;;;;;;0.82;0.40;;;;;;;;;;5073483;28;39150;-78
2021/05/02 14:21:23;;;;;;;2.28;0.38;;;;;;;;;;5075756;28;39309;-78
2021/05/02 14:23:49;;;;;;;2.97;0.50;;;;;;;;;;5077504;28;37799;-78
2021/05/02 14:26:19;;;;;;;2.05;0.70;;;;;;;;;;5075706;28;35797;-78
2021/05/02 14:28:45;;;;;;;0.85;0.30;;;;;;;;;;5093770;28;39160;-78
2021/05/02 14:31:12;;;;;;;2.15;0.30;;;;;;;;;;5074715;28;37155;-77
2021/05/02 14:33:38;;;;;;;2.78;0.50;;;;;;;;;;5071146;28;38051;-78
2021/05/02 14:36:05;;;;;;;1.38;0.50;;;;;;;;;;5091066;28;36853;-78
2021/05/02 14:38:31;;;;;;;1.80;0.40;;;;;;;;;;5070044;28;39417;-79
2021/05/02 14:40:57;;;;;;;2.63;0.43;;;;;;;;;;5072247;28;40152;-78
2021/05/02 14:43:24;;;;;;;1.98;0.40;;;;;;;;;;5073832;28;38796;-78
2021/05/02 14:45:50;;;;;;;4.63;0.50;;;;;;;;;;5097143;28;36949;-78